Keene, NH (03431)

1:47 PM EDT on July 27, 2016 (GMT -0400)
Keene,Surry,Gilsum line-FN32UX | | Change Station

Elev 820 ft 42.98 °N, 72.30 °W | Updated 13 minutes ago

Mostly Cloudy
Mostly Cloudy
87.1 °F
Feels Like 86 °F
N
5.8
Wind Variable Wind from NNE

Today
High -- | Low -- °F
--% Chance of Precip.
Yesterday
High -- | Low -- °F
Precip. -- in
Pressure 29.92 in
Visibility 8.0 miles
Clouds Mostly Cloudy 6500 ft
Heat Index 86 °F
Dew Point 58 °F
Humidity 38%
Rainfall 0.00 in
Snow Depth Not available.
5:35 AM 8:15 PM
Last Quarter, 41% visible
METAR KEEN 271656Z AUTO 33007KT 310V020 8SM BKN065 30/14 A2992 RMK AO2 SLPNO T03000144
Pressure 29.92 in
Visibility 8.0 miles
Clouds Mostly Cloudy 6500 ft
Heat Index 86 °F
Dew Point 58 °F
Humidity 38%
Rainfall 0.00 in
Snow Depth Not available.
5:35 AM 8:15 PM
Last Quarter, 41% visible
METAR KEEN 271656Z AUTO 33007KT 310V020 8SM BKN065 30/14 A2992 RMK AO2 SLPNO T03000144

10-Day Weather Forecast

Almanac

Astronomy

Jul. 27, 2016 Rise Set
Actual Time
Civil Twilight
Nautical Twilight
Astronomical Twilight
Moon
Length of Visible Light
Length of Day
Tomorrow will be .
, % of the Moon is Illuminated

Today's Extremes

State Highs State Lows

Community

WunderPhotos

Upload Photos

1,927,889 photos uploaded!

WunderBlog® & News

Nearby

Air Quality

  Air Quality AQ Index Pollutant
Not available.

Snow Depth

Station Depth Elevation

Earthquake Activity

City Distance Mag. Time & Date
Minimum magnitude displayed is 2.5.

Coastal Water Temperatures

Place Temperature

Stations

Nearby Weather Stations

Station Location Temp. Windchill Dew Point Humidity Wind Precip. Elev Updated Type
                   

Watches & Warnings

There are currently no watches in effect.